createdAt,value
2023-05-07T00:00:51.971Z,18.11
2023-05-07T00:03:18.665Z,18.10
2023-05-07T00:05:46.664Z,18.14
2023-05-07T00:08:13.497Z,18.12
2023-05-07T00:10:41.686Z,18.14
2023-05-07T00:13:08.413Z,18.15
2023-05-07T00:15:34.960Z,18.11
2023-05-07T00:18:01.571Z,18.06
2023-05-07T00:20:28.279Z,18.16
2023-05-07T00:22:56.268Z,18.13
2023-05-07T00:25:23.079Z,18.12
2023-05-07T00:27:49.778Z,18.13
2023-05-07T00:30:16.440Z,18.12
2023-05-07T00:32:43.056Z,18.16
2023-05-07T00:35:10.261Z,18.12
2023-05-07T00:37:37.019Z,18.14
2023-05-07T00:40:06.454Z,18.14
2023-05-07T00:42:32.979Z,18.13
2023-05-07T00:44:59.655Z,18.05
2023-05-07T00:47:26.521Z,18.06
2023-05-07T00:49:53.323Z,18.06
2023-05-07T00:52:23.348Z,18.08
2023-05-07T00:54:49.975Z,18.00
2023-05-07T00:57:18.292Z,17.90
2023-05-07T00:59:45.143Z,17.84
2023-05-07T01:02:12.249Z,17.76
2023-05-07T01:04:38.911Z,17.68
2023-05-07T01:07:06.912Z,17.62
2023-05-07T01:09:33.890Z,17.63
2023-05-07T01:12:00.861Z,17.61
2023-05-07T01:14:28.936Z,17.54
2023-05-07T01:16:55.855Z,17.52
2023-05-07T01:19:23.170Z,17.54
2023-05-07T01:21:50.308Z,17.58
2023-05-07T01:24:19.049Z,17.54
2023-05-07T01:26:45.706Z,17.53
2023-05-07T01:29:12.646Z,17.58
2023-05-07T01:31:40.923Z,17.56
2023-05-07T01:34:09.363Z,17.59
2023-05-07T01:36:38.153Z,17.56
2023-05-07T01:39:06.101Z,17.60
2023-05-07T01:41:34.159Z,17.57
2023-05-07T01:44:02.268Z,17.55
2023-05-07T01:46:29.699Z,17.43
2023-05-07T01:48:56.654Z,17.51
2023-05-07T01:51:23.534Z,17.53
2023-05-07T01:53:50.082Z,17.51
2023-05-07T01:56:16.776Z,17.58
2023-05-07T01:58:45.132Z,17.62
2023-05-07T02:01:11.730Z,17.54
2023-05-07T02:03:38.408Z,17.59
2023-05-07T02:06:05.349Z,17.57
2023-05-07T02:08:32.068Z,17.51
2023-05-07T02:10:58.619Z,17.36
2023-05-07T02:13:26.372Z,17.54
2023-05-07T02:15:54.375Z,17.55
2023-05-07T02:18:21.125Z,17.45
2023-05-07T02:20:48.044Z,17.42
2023-05-07T02:23:14.579Z,17.51
2023-05-07T02:25:41.480Z,17.49
2023-05-07T02:28:08.120Z,17.45
2023-05-07T02:30:34.750Z,17.47
2023-05-07T02:33:02.656Z,17.31
2023-05-07T02:35:29.397Z,17.36
2023-05-07T02:37:56.264Z,17.33
2023-05-07T02:40:23.562Z,17.34
2023-05-07T02:42:50.158Z,17.34
2023-05-07T02:45:16.875Z,17.30
2023-05-07T02:47:43.632Z,17.25
2023-05-07T02:50:12.204Z,17.25
2023-05-07T02:52:39.042Z,17.24
2023-05-07T02:55:06.771Z,17.20
2023-05-07T02:57:33.321Z,17.11
2023-05-07T02:59:59.992Z,17.13
2023-05-07T03:02:26.796Z,17.05
2023-05-07T03:04:53.585Z,17.00
2023-05-07T03:07:21.528Z,17.02
2023-05-07T03:09:48.054Z,16.98
2023-05-07T03:12:14.699Z,16.94
2023-05-07T03:14:41.247Z,17.04
2023-05-07T03:17:07.946Z,17.06
2023-05-07T03:19:34.450Z,17.09
2023-05-07T03:22:00.997Z,17.02
2023-05-07T03:24:28.903Z,16.98
2023-05-07T03:26:55.377Z,17.04
2023-05-07T03:29:21.876Z,16.99
2023-05-07T03:31:48.607Z,17.06
2023-05-07T03:34:15.225Z,17.13
2023-05-07T03:36:41.809Z,17.12
2023-05-07T03:39:08.308Z,17.08
2023-05-07T03:41:36.460Z,17.09
2023-05-07T03:44:03.187Z,17.04
2023-05-07T03:46:29.756Z,17.01
2023-05-07T03:48:56.287Z,17.09
2023-05-07T03:51:22.839Z,17.05
2023-05-07T03:53:49.343Z,17.08
2023-05-07T03:56:17.775Z,17.09
2023-05-07T03:58:48.362Z,17.06
2023-05-07T04:01:14.994Z,17.02
2023-05-07T04:03:41.539Z,16.98
2023-05-07T04:06:08.235Z,16.97
2023-05-07T04:08:34.797Z,16.97
2023-05-07T04:11:01.712Z,16.95
2023-05-07T04:13:28.294Z,16.94
2023-05-07T04:15:56.600Z,16.99
2023-05-07T04:18:23.350Z,17.14
2023-05-07T04:20:50.102Z,17.25
2023-05-07T04:23:16.697Z,17.41
2023-05-07T04:25:43.412Z,17.63
2023-05-07T04:28:10.100Z,17.73
2023-05-07T04:30:36.630Z,17.77
2023-05-07T04:33:04.647Z,17.95
2023-05-07T04:35:31.199Z,18.02
2023-05-07T04:37:57.852Z,18.02
2023-05-07T04:40:24.494Z,18.13
2023-05-07T04:42:51.012Z,18.14
2023-05-07T04:45:17.651Z,18.20
2023-05-07T04:47:44.287Z,18.19
2023-05-07T04:50:12.804Z,18.27
2023-05-07T04:52:39.962Z,18.40
2023-05-07T04:55:07.319Z,18.48
2023-05-07T04:57:34.126Z,18.52
2023-05-07T05:00:00.692Z,18.62
2023-05-07T05:02:27.465Z,18.68
2023-05-07T05:04:54.046Z,18.76
2023-05-07T05:07:22.173Z,19.02
2023-05-07T05:09:48.720Z,19.05
2023-05-07T05:12:15.260Z,19.19
2023-05-07T05:14:41.900Z,19.44
2023-05-07T05:17:08.470Z,19.91
2023-05-07T05:19:35.059Z,20.01
2023-05-07T05:22:01.697Z,20.00
2023-05-07T05:24:29.574Z,20.04
2023-05-07T05:26:56.730Z,20.05
2023-05-07T05:29:23.275Z,19.96
2023-05-07T05:31:49.891Z,19.99
2023-05-07T05:34:16.600Z,20.21
2023-05-07T05:36:43.162Z,20.26
2023-05-07T05:39:09.725Z,20.38
2023-05-07T05:41:37.801Z,20.54
2023-05-07T05:44:04.316Z,20.64
2023-05-07T05:46:31.009Z,20.91
2023-05-07T05:48:57.680Z,20.84
2023-05-07T05:51:24.283Z,21.08
2023-05-07T05:53:50.888Z,21.28
2023-05-07T05:56:17.629Z,21.46
2023-05-07T05:58:46.309Z,21.43
2023-05-07T06:01:12.954Z,21.90
2023-05-07T06:03:50.021Z,22.18
2023-05-07T06:06:16.586Z,22.13
2023-05-07T06:08:43.543Z,22.04
2023-05-07T06:11:10.125Z,21.99
2023-05-07T06:13:36.799Z,22.08
2023-05-07T06:16:05.558Z,22.02
2023-05-07T06:18:32.244Z,22.10
2023-05-07T06:20:58.801Z,22.23
2023-05-07T06:23:25.531Z,22.42
2023-05-07T06:25:52.438Z,22.43
2023-05-07T06:28:19.068Z,22.52
2023-05-07T06:30:45.650Z,22.76
2023-05-07T06:33:13.636Z,22.52
2023-05-07T06:35:40.226Z,22.61
2023-05-07T06:38:06.859Z,22.69
2023-05-07T06:40:33.550Z,22.98
2023-05-07T06:43:00.166Z,23.23
2023-05-07T06:45:26.959Z,23.08
2023-05-07T06:47:53.577Z,23.35
2023-05-07T06:50:21.682Z,23.50
2023-05-07T06:52:48.224Z,23.35
2023-05-07T06:55:15.082Z,23.66
2023-05-07T06:57:41.851Z,23.39
2023-05-07T07:00:09.663Z,23.38
2023-05-07T07:02:37.299Z,23.62
2023-05-07T07:05:04.375Z,23.76
2023-05-07T07:07:32.336Z,23.83
2023-05-07T07:09:58.964Z,23.62
2023-05-07T07:12:25.493Z,23.86
2023-05-07T07:14:52.112Z,24.16
2023-05-07T07:17:18.646Z,24.02
2023-05-07T07:19:47.875Z,24.39
2023-05-07T07:22:14.491Z,24.73
2023-05-07T07:24:42.389Z,25.58
2023-05-07T07:27:10.386Z,25.94
2023-05-07T07:29:36.958Z,26.03
2023-05-07T07:32:03.773Z,25.72
2023-05-07T07:34:30.471Z,26.09
2023-05-07T07:36:57.337Z,26.03
2023-05-07T07:39:23.888Z,26.25
2023-05-07T07:41:51.853Z,26.53
2023-05-07T07:44:18.499Z,26.37
2023-05-07T07:46:45.130Z,26.56
2023-05-07T07:49:11.778Z,26.04
2023-05-07T07:51:43.402Z,26.24
2023-05-07T07:54:10.011Z,26.19
2023-05-07T07:56:36.618Z,27.19
2023-05-07T07:59:04.790Z,27.52
2023-05-07T08:01:31.962Z,27.57
2023-05-07T08:03:58.651Z,27.35
2023-05-07T08:06:25.396Z,27.22
2023-05-07T08:08:52.003Z,27.44
2023-05-07T08:11:18.643Z,27.58
2023-05-07T08:13:47.020Z,27.56
2023-05-07T08:16:15.108Z,27.72
2023-05-07T08:18:41.744Z,27.83
2023-05-07T08:21:08.740Z,27.96
2023-05-07T08:23:35.266Z,28.29
2023-05-07T08:26:01.936Z,28.76
2023-05-07T08:28:28.518Z,29.04
2023-05-07T08:30:55.100Z,29.25
2023-05-07T08:33:23.124Z,29.26
2023-05-07T08:35:49.718Z,29.46
2023-05-07T08:38:16.257Z,29.41
2023-05-07T08:40:42.825Z,29.70
2023-05-07T08:43:11.871Z,29.88
2023-05-07T08:45:41.163Z,30.09
2023-05-07T08:48:10.807Z,30.47
2023-05-07T08:50:38.978Z,30.63
2023-05-07T08:53:05.593Z,30.78
2023-05-07T08:55:32.666Z,30.41
2023-05-07T08:57:59.673Z,30.08
2023-05-07T09:00:26.372Z,30.63
2023-05-07T09:02:53.338Z,30.78
2023-05-07T09:05:20.114Z,31.05
2023-05-07T09:07:48.186Z,31.03
2023-05-07T09:10:15.024Z,30.90
2023-05-07T09:12:41.614Z,31.11
2023-05-07T09:15:09.595Z,30.53
2023-05-07T09:17:36.528Z,30.07
2023-05-07T09:20:04.324Z,30.01
2023-05-07T09:22:32.688Z,29.78
2023-05-07T09:25:00.903Z,29.40
2023-05-07T09:27:27.474Z,29.71
2023-05-07T09:29:54.039Z,29.45
2023-05-07T09:32:20.641Z,29.82
2023-05-07T09:34:47.237Z,30.09
2023-05-07T09:37:14.561Z,30.05
2023-05-07T09:39:41.966Z,30.32
2023-05-07T09:42:10.258Z,30.36
2023-05-07T09:44:37.120Z,30.73
2023-05-07T09:47:06.272Z,31.03
2023-05-07T09:49:35.770Z,31.19
2023-05-07T09:52:03.442Z,31.40
2023-05-07T09:54:30.725Z,31.06
2023-05-07T09:56:57.931Z,30.81
2023-05-07T09:59:29.962Z,30.79
2023-05-07T10:01:59.255Z,30.88
2023-05-07T10:04:26.173Z,30.84
2023-05-07T10:06:53.637Z,30.87
2023-05-07T10:09:20.500Z,31.74
2023-05-07T10:11:49.709Z,31.78
2023-05-07T10:14:16.613Z,31.69
2023-05-07T10:16:45.416Z,31.38
2023-05-07T10:19:12.884Z,31.24
2023-05-07T10:21:45.157Z,30.41
2023-05-07T10:24:17.968Z,30.98
2023-05-07T10:26:48.160Z,30.98
2023-05-07T10:29:19.764Z,30.34
2023-05-07T10:31:58.651Z,30.30
2023-05-07T10:34:28.932Z,30.35
2023-05-07T10:36:57.391Z,29.10
2023-05-07T10:39:24.467Z,29.08
2023-05-07T10:41:51.331Z,29.16
2023-05-07T10:44:27.957Z,29.10
2023-05-07T10:47:12.288Z,29.82
2023-05-07T10:50:23.392Z,30.06
2023-05-07T10:53:21.679Z,29.63
2023-05-07T10:55:49.747Z,29.52
2023-05-07T10:58:31.843Z,29.10
2023-05-07T11:01:01.332Z,29.42
2023-05-07T11:03:29.888Z,28.97
2023-05-07T11:06:13.347Z,28.41
2023-05-07T11:08:56.104Z,28.78
2023-05-07T11:11:47.916Z,29.18
2023-05-07T11:14:15.625Z,29.01
2023-05-07T11:16:44.574Z,28.69
2023-05-07T11:19:12.734Z,28.37
2023-05-07T11:21:40.400Z,28.27
2023-05-07T11:24:08.410Z,27.86
2023-05-07T11:26:46.621Z,28.04
2023-05-07T11:29:15.152Z,28.32
2023-05-07T11:31:42.195Z,28.05
2023-05-07T11:34:09.270Z,28.40
2023-05-07T11:36:43.134Z,28.63
2023-05-07T11:39:24.999Z,28.29
2023-05-07T11:41:52.869Z,28.19
2023-05-07T11:44:20.278Z,28.17
2023-05-07T11:46:47.434Z,28.58
2023-05-07T11:49:14.087Z,28.56
2023-05-07T11:51:42.141Z,28.29
2023-05-07T11:54:09.732Z,28.17
2023-05-07T11:56:36.412Z,27.94
2023-05-07T11:59:02.953Z,28.18
2023-05-07T12:01:29.523Z,28.04
2023-05-07T12:03:56.143Z,27.80
2023-05-07T12:06:22.803Z,28.05
2023-05-07T12:08:50.775Z,27.43
2023-05-07T12:11:24.264Z,26.90
2023-05-07T12:13:50.850Z,26.92
2023-05-07T12:16:18.456Z,27.19
2023-05-07T12:18:45.852Z,26.49
2023-05-07T12:21:12.989Z,26.24
2023-05-07T12:23:39.764Z,26.56
2023-05-07T12:26:07.979Z,26.08
2023-05-07T12:28:38.672Z,25.69
2023-05-07T12:31:16.715Z,25.42
2023-05-07T12:33:43.641Z,25.73
2023-05-07T12:36:13.187Z,25.71
2023-05-07T12:38:40.129Z,25.19
2023-05-07T12:41:17.152Z,25.33
2023-05-07T12:43:45.639Z,24.56
2023-05-07T12:46:13.480Z,24.86
2023-05-07T12:48:44.637Z,24.81
2023-05-07T12:51:11.305Z,25.19
2023-05-07T12:53:41.510Z,25.16
2023-05-07T12:56:08.100Z,25.69
2023-05-07T12:58:36.827Z,26.11
2023-05-07T13:01:06.378Z,25.60
2023-05-07T13:03:34.949Z,26.17
2023-05-07T13:06:03.501Z,26.13
2023-05-07T13:08:32.312Z,25.34
2023-05-07T13:11:00.209Z,24.71
2023-05-07T13:13:27.256Z,24.81
2023-05-07T13:15:56.435Z,24.80
2023-05-07T13:18:23.246Z,24.70
2023-05-07T13:20:50.069Z,24.40
2023-05-07T13:23:16.643Z,23.60
2023-05-07T13:25:43.183Z,22.93
2023-05-07T13:28:11.484Z,23.41
2023-05-07T13:30:38.464Z,22.85
2023-05-07T13:33:06.545Z,23.13
2023-05-07T13:35:33.304Z,22.76
2023-05-07T13:37:59.958Z,22.52
2023-05-07T13:40:26.726Z,22.30
2023-05-07T13:42:54.489Z,22.57
2023-05-07T13:45:21.059Z,22.94
2023-05-07T13:47:47.990Z,22.79
2023-05-07T13:50:15.979Z,22.29
2023-05-07T13:52:44.764Z,22.91
2023-05-07T13:55:13.112Z,23.05
2023-05-07T13:57:39.815Z,23.14
2023-05-07T14:00:09.261Z,23.37
2023-05-07T14:02:36.015Z,23.15
2023-05-07T14:05:02.926Z,22.79
2023-05-07T14:07:30.876Z,22.67
2023-05-07T14:09:57.767Z,22.45
2023-05-07T14:12:24.430Z,21.91
2023-05-07T14:14:51.169Z,21.13
2023-05-07T14:17:18.251Z,20.69
2023-05-07T14:19:44.909Z,20.64
2023-05-07T14:22:11.699Z,20.67
2023-05-07T14:24:39.839Z,20.78
2023-05-07T14:27:06.970Z,20.68
2023-05-07T14:29:33.817Z,20.83
2023-05-07T14:32:00.407Z,21.02
2023-05-07T14:34:27.000Z,21.09
2023-05-07T14:36:53.628Z,21.07
2023-05-07T14:39:20.143Z,21.02
2023-05-07T14:41:48.280Z,20.94
2023-05-07T14:44:14.875Z,20.93
2023-05-07T14:46:41.482Z,20.82
2023-05-07T14:49:08.093Z,20.58
2023-05-07T14:51:34.645Z,20.35
2023-05-07T14:54:01.194Z,20.24
2023-05-07T14:56:28.257Z,20.44
2023-05-07T14:58:56.560Z,20.41
2023-05-07T15:01:26.570Z,20.32
2023-05-07T15:03:53.310Z,20.38
2023-05-07T15:06:20.105Z,20.60
2023-05-07T15:08:46.706Z,20.45
2023-05-07T15:11:13.294Z,20.33
2023-05-07T15:13:39.922Z,19.63
2023-05-07T15:16:08.055Z,19.49
2023-05-07T15:18:34.734Z,19.43
2023-05-07T15:21:01.308Z,19.25
2023-05-07T15:23:27.896Z,19.53
2023-05-07T15:25:54.694Z,19.66
2023-05-07T15:28:21.280Z,19.80
2023-05-07T15:30:47.948Z,19.84
2023-05-07T15:33:15.908Z,19.91
2023-05-07T15:35:42.906Z,20.10
2023-05-07T15:38:09.510Z,19.83
2023-05-07T15:40:36.096Z,19.81
2023-05-07T15:43:02.695Z,20.03
2023-05-07T15:45:29.354Z,19.64
2023-05-07T15:47:55.949Z,19.69
2023-05-07T15:50:23.864Z,19.76
2023-05-07T15:52:50.426Z,20.34
2023-05-07T15:55:17.004Z,20.63
2023-05-07T15:57:44.045Z,20.72
2023-05-07T16:00:11.625Z,20.78
2023-05-07T16:02:38.852Z,20.95
2023-05-07T16:05:07.375Z,20.98
2023-05-07T16:07:35.892Z,20.97
2023-05-07T16:10:02.576Z,20.95
2023-05-07T16:12:29.234Z,20.89
2023-05-07T16:14:55.996Z,21.29
2023-05-07T16:17:22.748Z,21.49
2023-05-07T16:19:50.997Z,21.61
2023-05-07T16:22:18.020Z,21.67
2023-05-07T16:24:46.028Z,21.84
2023-05-07T16:27:12.790Z,21.86
2023-05-07T16:29:39.355Z,21.70
2023-05-07T16:32:05.906Z,21.89
2023-05-07T16:34:32.799Z,22.02
2023-05-07T16:36:59.865Z,22.15
2023-05-07T16:39:26.502Z,22.16
2023-05-07T16:41:54.815Z,22.04
2023-05-07T16:44:21.403Z,21.94
2023-05-07T16:46:48.008Z,22.04
2023-05-07T16:49:14.628Z,21.85
2023-05-07T16:51:41.177Z,21.91
2023-05-07T16:54:07.942Z,21.84
2023-05-07T16:56:34.474Z,22.00
2023-05-07T16:59:02.484Z,21.64
2023-05-07T17:01:29.258Z,21.66
2023-05-07T17:03:55.919Z,21.53
2023-05-07T17:06:22.699Z,21.53
2023-05-07T17:08:49.274Z,21.87
2023-05-07T17:11:16.008Z,21.97
2023-05-07T17:13:42.605Z,22.12
2023-05-07T17:16:10.892Z,21.91
2023-05-07T17:18:37.664Z,21.89
2023-05-07T17:21:04.755Z,21.92
2023-05-07T17:23:31.341Z,21.98
2023-05-07T17:25:57.916Z,22.12
2023-05-07T17:28:39.728Z,22.25
2023-05-07T17:31:06.430Z,22.23
2023-05-07T17:33:34.675Z,22.22
2023-05-07T17:36:01.275Z,22.05
2023-05-07T17:38:27.865Z,22.00
2023-05-07T17:40:54.665Z,21.85
2023-05-07T17:43:21.291Z,21.73
2023-05-07T17:45:47.920Z,21.69
2023-05-07T17:48:14.668Z,21.70
2023-05-07T17:50:42.779Z,21.80
2023-05-07T17:53:09.443Z,21.83
2023-05-07T17:55:36.057Z,21.68
2023-05-07T17:58:04.163Z,21.60
2023-05-07T18:00:30.957Z,21.54
2023-05-07T18:02:57.670Z,21.53
2023-05-07T18:05:25.050Z,21.47
2023-05-07T18:07:54.516Z,21.47
2023-05-07T18:10:22.485Z,21.26
2023-05-07T18:12:49.509Z,21.17
2023-05-07T18:15:16.340Z,21.12
2023-05-07T18:17:42.925Z,21.07
2023-05-07T18:20:10.598Z,20.92
2023-05-07T18:22:37.714Z,20.94
2023-05-07T18:25:07.111Z,20.94
2023-05-07T18:27:34.099Z,20.77
2023-05-07T18:30:00.662Z,20.67
2023-05-07T18:32:27.625Z,20.49
2023-05-07T18:34:54.314Z,20.50
2023-05-07T18:37:24.650Z,20.46
2023-05-07T18:39:52.656Z,20.41
2023-05-07T18:42:20.600Z,20.37
2023-05-07T18:44:47.162Z,20.26
2023-05-07T18:47:13.761Z,20.29
2023-05-07T18:49:40.450Z,20.19
2023-05-07T18:52:07.288Z,20.09
2023-05-07T18:54:33.847Z,20.07
2023-05-07T18:57:01.281Z,20.10
2023-05-07T18:59:29.223Z,20.00
2023-05-07T19:01:56.101Z,20.04
2023-05-07T19:04:22.756Z,20.02
2023-05-07T19:06:49.338Z,20.00
2023-05-07T19:09:15.977Z,19.96
2023-05-07T19:11:42.660Z,20.07
2023-05-07T19:14:09.297Z,20.00
2023-05-07T19:16:37.303Z,19.98
2023-05-07T19:19:03.991Z,20.03
2023-05-07T19:21:30.562Z,20.00
2023-05-07T19:23:57.400Z,19.97
2023-05-07T19:26:24.368Z,20.02
2023-05-07T19:29:06.666Z,19.99
2023-05-07T19:31:38.968Z,19.87
2023-05-07T19:34:05.572Z,19.90
2023-05-07T19:36:32.151Z,19.81
2023-05-07T19:38:58.714Z,19.65
2023-05-07T19:41:25.392Z,19.70
2023-05-07T19:43:52.021Z,19.60
2023-05-07T19:46:18.617Z,19.54
2023-05-07T19:48:46.829Z,19.36
2023-05-07T19:51:13.511Z,19.49
2023-05-07T19:53:40.228Z,19.54
2023-05-07T19:56:09.332Z,19.59
2023-05-07T19:58:36.756Z,19.55
2023-05-07T20:01:04.302Z,19.38
2023-05-07T20:03:32.246Z,19.41
2023-05-07T20:06:03.032Z,19.45
2023-05-07T20:08:29.694Z,19.37
2023-05-07T20:10:58.234Z,19.14
2023-05-07T20:13:24.970Z,19.16
2023-05-07T20:15:52.500Z,19.23
2023-05-07T20:18:19.098Z,19.27
2023-05-07T20:20:45.733Z,19.20
2023-05-07T20:23:13.667Z,19.14
2023-05-07T20:25:40.803Z,19.15
2023-05-07T20:28:07.424Z,19.15
2023-05-07T20:30:34.076Z,19.12
2023-05-07T20:33:00.764Z,19.16
2023-05-07T20:35:27.398Z,19.09
2023-05-07T20:37:54.000Z,19.07
2023-05-07T20:40:22.224Z,19.10
2023-05-07T20:42:49.006Z,18.97
2023-05-07T20:45:15.582Z,19.14
2023-05-07T20:47:42.220Z,19.20
2023-05-07T20:50:09.619Z,19.17
2023-05-07T20:52:36.238Z,19.10
2023-05-07T20:55:03.009Z,19.00
2023-05-07T20:57:31.008Z,19.18
2023-05-07T20:59:57.580Z,19.19
2023-05-07T21:02:24.788Z,19.22
2023-05-07T21:04:51.513Z,19.17
2023-05-07T21:07:18.444Z,19.18
2023-05-07T21:09:45.032Z,19.18
2023-05-07T21:12:11.581Z,19.23
2023-05-07T21:14:39.496Z,19.20
2023-05-07T21:17:06.206Z,19.19
2023-05-07T21:19:32.987Z,19.16
2023-05-07T21:21:59.541Z,19.16
2023-05-07T21:24:26.010Z,19.06
2023-05-07T21:26:53.984Z,19.08
2023-05-07T21:29:20.751Z,19.14
2023-05-07T21:31:49.361Z,19.13
2023-05-07T21:34:16.234Z,19.18
2023-05-07T21:36:42.937Z,19.11
2023-05-07T21:39:09.525Z,19.07
2023-05-07T21:41:36.180Z,19.11
2023-05-07T21:44:02.920Z,19.16
2023-05-07T21:46:29.625Z,19.19
2023-05-07T21:48:58.030Z,19.14
2023-05-07T21:51:24.644Z,19.10
2023-05-07T21:53:51.232Z,19.14
2023-05-07T21:56:17.902Z,19.13
2023-05-07T21:58:48.245Z,19.02
2023-05-07T22:01:14.884Z,19.12
2023-05-07T22:03:41.555Z,19.12
2023-05-07T22:06:10.067Z,19.11
2023-05-07T22:08:36.698Z,19.10
2023-05-07T22:11:03.379Z,19.08
2023-05-07T22:13:30.078Z,19.00
2023-05-07T22:15:58.490Z,19.04
2023-05-07T22:18:25.879Z,18.98
2023-05-07T22:20:52.483Z,18.87
2023-05-07T22:23:20.742Z,18.83
2023-05-07T22:25:47.286Z,18.91
2023-05-07T22:28:13.832Z,18.83
2023-05-07T22:30:40.465Z,18.82
2023-05-07T22:33:07.091Z,18.84
2023-05-07T22:35:33.826Z,18.82
2023-05-07T22:38:00.415Z,18.79
2023-05-07T22:40:28.406Z,18.85
2023-05-07T22:42:54.995Z,18.82
2023-05-07T22:45:21.690Z,18.81
2023-05-07T22:47:48.301Z,18.83
2023-05-07T22:50:15.251Z,18.69
2023-05-07T22:52:42.528Z,18.71
2023-05-07T22:55:09.443Z,18.76
2023-05-07T22:57:37.362Z,18.74
2023-05-07T23:00:04.750Z,18.68
2023-05-07T23:02:31.553Z,18.70
2023-05-07T23:04:59.227Z,18.71
2023-05-07T23:07:25.969Z,18.68
2023-05-07T23:09:52.582Z,18.72
2023-05-07T23:12:19.170Z,18.72
2023-05-07T23:14:47.081Z,18.70
2023-05-07T23:17:14.357Z,18.68
2023-05-07T23:19:40.984Z,18.70
2023-05-07T23:22:07.694Z,18.68
2023-05-07T23:24:34.268Z,18.74
2023-05-07T23:27:04.342Z,18.67
2023-05-07T23:29:31.080Z,18.61
2023-05-07T23:31:59.061Z,18.59
2023-05-07T23:34:25.564Z,18.56
2023-05-07T23:36:52.369Z,18.54
2023-05-07T23:39:19.302Z,18.57
2023-05-07T23:41:46.607Z,18.52
2023-05-07T23:44:13.194Z,18.52
2023-05-07T23:46:39.928Z,18.44
2023-05-07T23:49:07.963Z,18.37
2023-05-07T23:51:34.487Z,18.27
2023-05-07T23:54:01.340Z,18.28
2023-05-07T23:56:27.881Z,18.19
2023-05-07T23:58:54.440Z,18.16
